createdAt,value
2022-10-16T00:02:43.081Z,10.60
2022-10-16T00:07:48.527Z,10.50
2022-10-16T00:12:52.023Z,10.50
2022-10-16T00:17:53.820Z,10.50
2022-10-16T00:22:55.655Z,10.40
2022-10-16T00:27:57.532Z,10.40
2022-10-16T00:32:59.425Z,10.40
2022-10-16T00:38:01.255Z,10.40
2022-10-16T00:43:03.198Z,10.40
2022-10-16T00:53:13.090Z,10.30
2022-10-16T00:58:15.007Z,10.20
2022-10-16T01:03:29.302Z,10.20
2022-10-16T01:08:57.360Z,10.20
2022-10-16T01:14:07.414Z,10.10
2022-10-16T01:19:16.091Z,10.10
2022-10-16T01:24:23.750Z,10.10
2022-10-16T01:29:28.481Z,10.10
2022-10-16T01:34:36.628Z,10.10
2022-10-16T01:39:40.826Z,10.10
2022-10-16T01:44:44.027Z,10.00
2022-10-16T01:49:46.165Z,10.00
2022-10-16T01:54:50.867Z,10.00
2022-10-16T01:59:56.134Z,9.90
2022-10-16T02:05:03.139Z,9.90
2022-10-16T02:10:05.988Z,9.90
2022-10-16T02:15:08.210Z,9.90
2022-10-16T02:20:10.754Z,9.90
2022-10-16T02:25:24.900Z,9.80
2022-10-16T02:30:31.900Z,9.80
2022-10-16T02:35:33.779Z,9.80
2022-10-16T02:40:35.916Z,9.90
2022-10-16T02:45:37.748Z,9.90
2022-10-16T02:50:39.551Z,9.90
2022-10-16T02:55:41.389Z,9.90
2022-10-16T03:00:43.574Z,9.80
2022-10-16T03:05:48.658Z,9.80
2022-10-16T03:10:51.084Z,9.70
2022-10-16T03:15:53.134Z,9.70
2022-10-16T03:20:54.927Z,9.70
2022-10-16T03:25:56.980Z,9.60
2022-10-16T03:30:58.862Z,9.50
2022-10-16T03:36:01.186Z,9.50
2022-10-16T03:41:03.133Z,9.50
2022-10-16T03:46:05.155Z,9.60
2022-10-16T03:51:07.111Z,9.60
2022-10-16T03:56:08.920Z,9.60
2022-10-16T04:01:10.862Z,9.60
2022-10-16T04:06:12.875Z,9.60
2022-10-16T04:11:14.670Z,9.50
2022-10-16T04:16:16.499Z,9.50
2022-10-16T04:21:18.310Z,9.40
2022-10-16T04:26:20.085Z,9.30
2022-10-16T04:31:22.157Z,9.30
2022-10-16T04:36:26.807Z,9.30
2022-10-16T04:41:31.008Z,9.20
2022-10-16T04:46:32.812Z,9.20
2022-10-16T04:51:34.784Z,9.20
2022-10-16T04:56:43.930Z,9.20
2022-10-16T05:01:46.402Z,9.10
2022-10-16T05:06:48.831Z,9.10
2022-10-16T05:11:50.655Z,9.00
2022-10-16T05:16:55.574Z,9.00
2022-10-16T05:21:57.580Z,9.00
2022-10-16T05:26:59.537Z,9.00
2022-10-16T05:32:01.358Z,9.00
2022-10-16T05:37:03.194Z,9.00
2022-10-16T05:42:05.745Z,9.00
2022-10-16T05:47:07.624Z,9.00
2022-10-16T05:52:09.463Z,9.00
2022-10-16T05:57:11.343Z,9.10
2022-10-16T06:02:14.787Z,9.10
2022-10-16T06:07:16.756Z,9.30
2022-10-16T06:12:18.605Z,9.50
2022-10-16T06:17:20.395Z,9.60
2022-10-16T06:22:22.221Z,9.80
2022-10-16T06:27:24.151Z,10.00
2022-10-16T06:32:26.045Z,10.40
2022-10-16T06:37:28.524Z,10.60
2022-10-16T06:42:31.019Z,10.90
2022-10-16T06:47:32.856Z,11.10
2022-10-16T06:52:35.243Z,11.30
2022-10-16T06:57:37.035Z,11.30
2022-10-16T07:02:39.409Z,11.40
2022-10-16T07:07:41.419Z,11.50
2022-10-16T07:12:46.024Z,11.80
2022-10-16T07:17:48.815Z,12.10
2022-10-16T07:22:50.637Z,12.30
2022-10-16T07:27:52.573Z,12.50
2022-10-16T07:32:54.418Z,12.60
2022-10-16T07:37:56.215Z,12.70
2022-10-16T07:42:58.228Z,12.80
2022-10-16T07:48:00.055Z,12.80
2022-10-16T07:53:01.871Z,12.80
2022-10-16T07:58:03.749Z,13.10
2022-10-16T08:03:05.703Z,13.50
2022-10-16T08:08:07.565Z,13.60
2022-10-16T08:13:09.518Z,13.70
2022-10-16T08:18:12.831Z,13.80
2022-10-16T08:23:19.471Z,13.90
2022-10-16T08:28:22.792Z,14.10
2022-10-16T08:33:24.714Z,14.30
2022-10-16T08:38:26.672Z,14.60
2022-10-16T08:44:01.868Z,14.80
2022-10-16T08:49:04.617Z,15.00
2022-10-16T08:54:23.995Z,15.20
2022-10-16T08:59:49.617Z,15.20
2022-10-16T09:05:12.363Z,15.50
2022-10-16T09:10:26.140Z,15.70
2022-10-16T09:15:43.926Z,15.90
2022-10-16T09:20:56.868Z,16.00
2022-10-16T09:25:59.646Z,16.10
2022-10-16T09:31:03.927Z,16.20
2022-10-16T09:36:12.378Z,16.20
2022-10-16T09:41:22.512Z,16.30
2022-10-16T09:46:36.181Z,16.40
2022-10-16T09:51:38.438Z,16.70
2022-10-16T09:56:40.497Z,17.00
2022-10-16T10:01:53.823Z,17.40
2022-10-16T10:06:56.771Z,17.60
2022-10-16T10:12:00.452Z,17.70
2022-10-16T10:17:21.734Z,18.20
2022-10-16T10:22:32.713Z,18.00
2022-10-16T10:28:07.629Z,18.00
2022-10-16T10:33:09.409Z,18.40
2022-10-16T10:38:42.327Z,18.70
2022-10-16T10:43:59.668Z,19.00
2022-10-16T10:49:29.363Z,19.00
2022-10-16T10:54:40.897Z,19.10
2022-10-16T10:59:53.983Z,19.20
2022-10-16T11:05:20.918Z,19.00
2022-10-16T11:10:25.525Z,18.90
2022-10-16T11:15:36.753Z,18.80
2022-10-16T11:20:47.322Z,18.60
2022-10-16T11:25:49.535Z,18.60
2022-10-16T11:31:09.912Z,18.60
2022-10-16T11:36:47.637Z,18.60
2022-10-16T11:42:05.931Z,18.60
2022-10-16T11:53:06.202Z,19.00
2022-10-16T11:58:27.488Z,19.00
2022-10-16T12:03:40.598Z,18.90
2022-10-16T12:08:44.406Z,18.80
2022-10-16T12:13:49.191Z,19.00
2022-10-16T12:19:08.980Z,19.60
2022-10-16T12:24:43.500Z,20.00
2022-10-16T12:29:45.492Z,20.40
2022-10-16T12:34:48.694Z,20.20
2022-10-16T12:39:51.120Z,20.00
2022-10-16T12:44:53.634Z,19.90
2022-10-16T12:49:55.760Z,20.10
2022-10-16T12:55:01.500Z,20.30
2022-10-16T13:00:24.314Z,20.50
2022-10-16T13:05:48.066Z,20.60
2022-10-16T13:11:14.177Z,20.60
2022-10-16T13:16:54.758Z,20.70
2022-10-16T13:22:06.203Z,20.70
2022-10-16T13:27:26.612Z,20.70
2022-10-16T13:32:28.742Z,20.60
2022-10-16T13:37:30.606Z,20.60
2022-10-16T13:42:34.518Z,20.30
2022-10-16T13:47:36.316Z,20.20
2022-10-16T13:52:39.121Z,20.00
2022-10-16T13:57:41.425Z,19.90
2022-10-16T14:02:55.642Z,19.90
2022-10-16T14:07:58.743Z,19.70
2022-10-16T14:13:23.757Z,19.70
2022-10-16T14:18:47.323Z,19.70
2022-10-16T14:30:09.163Z,19.70
2022-10-16T14:35:45.080Z,19.60
2022-10-16T14:40:48.814Z,19.60
2022-10-16T14:45:59.449Z,19.50
2022-10-16T14:51:01.238Z,19.40
2022-10-16T14:56:49.887Z,19.30
2022-10-16T15:01:54.983Z,19.30
2022-10-16T15:07:00.227Z,19.20
2022-10-16T15:12:05.502Z,19.10
2022-10-16T15:17:10.392Z,19.00
2022-10-16T15:22:12.874Z,18.90
2022-10-16T15:27:14.754Z,18.80
2022-10-16T15:32:16.578Z,18.60
2022-10-16T15:37:18.480Z,18.50
2022-10-16T15:42:20.279Z,18.50
2022-10-16T15:47:22.642Z,18.30
2022-10-16T15:52:24.936Z,18.10
2022-10-16T15:57:29.447Z,17.90
2022-10-16T16:02:31.432Z,17.80
2022-10-16T16:07:37.385Z,17.60
2022-10-16T16:12:39.754Z,17.40
2022-10-16T16:17:43.750Z,17.30
2022-10-16T16:22:45.679Z,17.10
2022-10-16T16:28:30.272Z,17.00
2022-10-16T16:33:32.478Z,16.80
2022-10-16T16:38:34.784Z,16.70
2022-10-16T16:43:36.603Z,16.40
2022-10-16T16:48:39.183Z,16.30
2022-10-16T16:53:40.990Z,16.10
2022-10-16T16:58:42.848Z,16.00
2022-10-16T17:03:45.673Z,15.80
2022-10-16T17:08:47.742Z,15.70
2022-10-16T17:13:53.889Z,15.60
2022-10-16T17:19:02.896Z,15.50
2022-10-16T17:24:05.327Z,15.50
2022-10-16T17:29:07.792Z,15.40
2022-10-16T17:34:11.804Z,15.40
2022-10-16T17:39:15.238Z,15.40
2022-10-16T17:44:20.226Z,15.30
2022-10-16T17:49:22.348Z,15.30
2022-10-16T17:54:24.176Z,15.30
2022-10-16T17:59:26.287Z,15.30
2022-10-16T18:04:28.246Z,15.30
2022-10-16T18:09:30.309Z,15.20
2022-10-16T18:14:32.415Z,15.20
2022-10-16T18:19:34.202Z,15.40
2022-10-16T18:24:36.558Z,15.50
2022-10-16T18:29:38.527Z,15.60
2022-10-16T18:34:44.916Z,15.80
2022-10-16T18:39:48.803Z,15.90
2022-10-16T18:44:52.718Z,16.00
2022-10-16T18:49:54.781Z,16.00
2022-10-16T18:54:57.749Z,16.10
2022-10-16T19:00:08.989Z,16.10
2022-10-16T19:05:14.843Z,16.00
2022-10-16T19:10:17.771Z,16.00
2022-10-16T19:15:31.187Z,16.00
2022-10-16T19:20:35.754Z,15.90
2022-10-16T19:25:45.097Z,15.90
2022-10-16T19:30:57.160Z,16.00
2022-10-16T19:36:13.743Z,16.00
2022-10-16T19:41:22.404Z,16.00
2022-10-16T19:46:25.713Z,15.90
2022-10-16T19:51:28.884Z,15.90
2022-10-16T19:56:32.031Z,15.90
2022-10-16T20:01:33.953Z,15.90
2022-10-16T20:06:36.135Z,15.90
2022-10-16T20:11:38.003Z,15.80
2022-10-16T20:16:40.650Z,15.80
2022-10-16T20:21:42.806Z,15.80
2022-10-16T20:26:44.814Z,15.70
2022-10-16T20:31:46.743Z,15.60
2022-10-16T20:36:50.755Z,15.60
2022-10-16T20:41:52.581Z,15.60
2022-10-16T20:46:55.822Z,15.50
2022-10-16T20:51:57.609Z,15.50
2022-10-16T20:56:59.623Z,15.40
2022-10-16T21:02:01.567Z,15.40
2022-10-16T21:07:03.872Z,15.30
2022-10-16T21:12:06.083Z,15.30
2022-10-16T21:17:08.619Z,15.30
2022-10-16T21:22:11.372Z,15.30
2022-10-16T21:27:13.260Z,15.20
2022-10-16T21:32:15.227Z,15.20
2022-10-16T21:37:17.106Z,15.10
2022-10-16T21:42:18.890Z,15.00
2022-10-16T21:47:20.696Z,15.00
2022-10-16T21:52:22.728Z,14.90
2022-10-16T21:57:24.821Z,14.80
2022-10-16T22:02:27.091Z,14.70
2022-10-16T22:07:30.008Z,14.60
2022-10-16T22:12:32.074Z,14.60
2022-10-16T22:17:33.981Z,14.50
2022-10-16T22:22:35.860Z,14.40
2022-10-16T22:27:57.550Z,14.40
2022-10-16T22:32:59.346Z,14.30
2022-10-16T22:38:01.139Z,14.20
2022-10-16T22:43:03.582Z,14.20
2022-10-16T22:48:05.948Z,14.10
2022-10-16T22:53:07.758Z,14.20
2022-10-16T22:58:09.666Z,14.20
2022-10-16T23:03:11.802Z,14.20
2022-10-16T23:08:13.879Z,14.30
2022-10-16T23:13:15.748Z,14.20
2022-10-16T23:18:17.611Z,14.20
2022-10-16T23:23:19.402Z,14.10
2022-10-16T23:28:21.280Z,14.00
2022-10-16T23:33:23.207Z,14.00
2022-10-16T23:38:26.011Z,13.90
2022-10-16T23:43:28.112Z,13.90
2022-10-16T23:48:29.969Z,13.80
2022-10-16T23:53:32.070Z,13.70
2022-10-16T23:58:33.982Z,13.60
